sensor_id;sensor_type;location;lat;lon;timestamp;P1;durP1;ratioP1;P2;durP2;ratioP2
35693;SDS011;21812;55.536;37.664;2022-12-29T00:01:55;2.80;;;1.00;;
35693;SDS011;21812;55.536;37.664;2022-12-29T00:04:20;1.73;;;0.73;;
35693;SDS011;21812;55.536;37.664;2022-12-29T00:06:46;3.10;;;1.13;;
35693;SDS011;21812;55.536;37.664;2022-12-29T00:09:12;2.10;;;0.90;;
35693;SDS011;21812;55.536;37.664;2022-12-29T00:11:38;4.37;;;1.30;;
35693;SDS011;21812;55.536;37.664;2022-12-29T00:14:04;3.57;;;1.17;;
35693;SDS011;21812;55.536;37.664;2022-12-29T00:16:52;1.17;;;0.90;;
35693;SDS011;21812;55.536;37.664;2022-12-29T00:19:17;3.53;;;1.10;;
35693;SDS011;21812;55.536;37.664;2022-12-29T00:22:01;7.88;;;1.40;;
35693;SDS011;21812;55.536;37.664;2022-12-29T00:24:46;5.10;;;1.50;;
35693;SDS011;21812;55.536;37.664;2022-12-29T00:27:29;3.83;;;0.90;;
35693;SDS011;21812;55.536;37.664;2022-12-29T00:30:15;4.33;;;1.57;;
35693;SDS011;21812;55.536;37.664;2022-12-29T00:33:15;4.90;;;1.43;;
35693;SDS011;21812;55.536;37.664;2022-12-29T00:36:02;2.20;;;0.97;;
35693;SDS011;21812;55.536;37.664;2022-12-29T00:39:06;2.73;;;1.20;;
35693;SDS011;21812;55.536;37.664;2022-12-29T00:41:54;2.43;;;1.00;;
35693;SDS011;21812;55.536;37.664;2022-12-29T00:47:03;2.80;;;1.27;;
35693;SDS011;21812;55.536;37.664;2022-12-29T00:49:31;2.33;;;1.10;;
35693;SDS011;21812;55.536;37.664;2022-12-29T00:52:01;1.77;;;0.90;;
35693;SDS011;21812;55.536;37.664;2022-12-29T00:54:35;3.20;;;1.27;;
35693;SDS011;21812;55.536;37.664;2022-12-29T00:57:03;2.70;;;1.13;;
35693;SDS011;21812;55.536;37.664;2022-12-29T00:59:30;3.20;;;1.10;;
35693;SDS011;21812;55.536;37.664;2022-12-29T01:01:56;5.57;;;2.20;;
35693;SDS011;21812;55.536;37.664;2022-12-29T01:04:23;3.80;;;1.00;;
35693;SDS011;21812;55.536;37.664;2022-12-29T01:06:49;4.80;;;1.30;;
35693;SDS011;21812;55.536;37.664;2022-12-29T01:09:16;5.23;;;1.50;;
35693;SDS011;21812;55.536;37.664;2022-12-29T01:12:02;2.97;;;1.17;;
35693;SDS011;21812;55.536;37.664;2022-12-29T01:14:29;4.63;;;1.27;;
35693;SDS011;21812;55.536;37.664;2022-12-29T01:16:56;3.67;;;1.10;;
35693;SDS011;21812;55.536;37.664;2022-12-29T01:19:22;1.80;;;0.90;;
35693;SDS011;21812;55.536;37.664;2022-12-29T01:21:48;3.63;;;1.50;;
35693;SDS011;21812;55.536;37.664;2022-12-29T01:24:15;4.43;;;1.67;;
35693;SDS011;21812;55.536;37.664;2022-12-29T01:26:41;6.00;;;1.70;;
35693;SDS011;21812;55.536;37.664;2022-12-29T01:29:07;2.17;;;1.07;;
35693;SDS011;21812;55.536;37.664;2022-12-29T01:31:33;5.53;;;1.20;;
35693;SDS011;21812;55.536;37.664;2022-12-29T01:33:59;8.07;;;2.40;;
35693;SDS011;21812;55.536;37.664;2022-12-29T01:36:25;2.30;;;1.17;;
35693;SDS011;21812;55.536;37.664;2022-12-29T01:38:50;6.97;;;1.80;;
35693;SDS011;21812;55.536;37.664;2022-12-29T01:41:16;3.00;;;1.13;;
35693;SDS011;21812;55.536;37.664;2022-12-29T01:48:45;3.53;;;1.53;;
35693;SDS011;21812;55.536;37.664;2022-12-29T01:51:14;5.00;;;1.60;;
35693;SDS011;21812;55.536;37.664;2022-12-29T01:53:41;4.80;;;1.00;;
35693;SDS011;21812;55.536;37.664;2022-12-29T01:56:08;6.40;;;1.23;;
35693;SDS011;21812;55.536;37.664;2022-12-29T01:58:37;1.60;;;0.80;;
35693;SDS011;21812;55.536;37.664;2022-12-29T02:01:07;4.57;;;1.50;;
35693;SDS011;21812;55.536;37.664;2022-12-29T02:03:34;2.73;;;1.07;;
35693;SDS011;21812;55.536;37.664;2022-12-29T02:06:07;4.70;;;1.83;;
35693;SDS011;21812;55.536;37.664;2022-12-29T02:08:37;5.43;;;1.53;;
35693;SDS011;21812;55.536;37.664;2022-12-29T02:11:04;4.37;;;1.30;;
35693;SDS011;21812;55.536;37.664;2022-12-29T02:13:33;4.10;;;1.30;;
35693;SDS011;21812;55.536;37.664;2022-12-29T02:16:06;8.90;;;1.43;;
35693;SDS011;21812;55.536;37.664;2022-12-29T02:21:40;1.87;;;0.87;;
35693;SDS011;21812;55.536;37.664;2022-12-29T02:35:35;3.67;;;0.93;;
35693;SDS011;21812;55.536;37.664;2022-12-29T02:38:15;5.00;;;1.90;;
35693;SDS011;21812;55.536;37.664;2022-12-29T02:43:26;4.57;;;1.37;;
35693;SDS011;21812;55.536;37.664;2022-12-29T02:46:18;5.10;;;2.10;;
35693;SDS011;21812;55.536;37.664;2022-12-29T02:54:29;12.70;;;2.03;;
35693;SDS011;21812;55.536;37.664;2022-12-29T02:57:12;5.83;;;1.40;;
35693;SDS011;21812;55.536;37.664;2022-12-29T02:59:41;6.50;;;1.20;;
35693;SDS011;21812;55.536;37.664;2022-12-29T03:05:14;5.53;;;1.47;;
35693;SDS011;21812;55.536;37.664;2022-12-29T03:16:21;6.80;;;1.80;;
35693;SDS011;21812;55.536;37.664;2022-12-29T03:21:38;8.03;;;2.03;;
35693;SDS011;21812;55.536;37.664;2022-12-29T03:24:30;5.73;;;1.50;;
35693;SDS011;21812;55.536;37.664;2022-12-29T03:27:00;7.47;;;1.93;;
35693;SDS011;21812;55.536;37.664;2022-12-29T03:29:37;2.90;;;1.10;;
35693;SDS011;21812;55.536;37.664;2022-12-29T03:32:11;5.53;;;1.60;;
35693;SDS011;21812;55.536;37.664;2022-12-29T03:34:38;3.20;;;1.27;;
35693;SDS011;21812;55.536;37.664;2022-12-29T03:37:06;6.10;;;1.60;;
35693;SDS011;21812;55.536;37.664;2022-12-29T03:39:36;8.43;;;1.73;;
35693;SDS011;21812;55.536;37.664;2022-12-29T03:42:04;5.83;;;1.50;;
35693;SDS011;21812;55.536;37.664;2022-12-29T03:44:37;8.37;;;1.87;;
35693;SDS011;21812;55.536;37.664;2022-12-29T03:47:07;3.55;;;2.20;;
35693;SDS011;21812;55.536;37.664;2022-12-29T03:49:35;4.27;;;1.33;;
35693;SDS011;21812;55.536;37.664;2022-12-29T03:52:03;5.43;;;1.87;;
35693;SDS011;21812;55.536;37.664;2022-12-29T03:54:30;5.17;;;1.50;;
35693;SDS011;21812;55.536;37.664;2022-12-29T03:56:57;5.10;;;1.43;;
35693;SDS011;21812;55.536;37.664;2022-12-29T03:59:36;4.30;;;2.20;;
35693;SDS011;21812;55.536;37.664;2022-12-29T04:02:04;3.07;;;1.60;;
35693;SDS011;21812;55.536;37.664;2022-12-29T04:04:29;4.57;;;1.83;;
35693;SDS011;21812;55.536;37.664;2022-12-29T04:06:55;3.63;;;1.60;;
35693;SDS011;21812;55.536;37.664;2022-12-29T04:09:21;8.37;;;2.60;;
35693;SDS011;21812;55.536;37.664;2022-12-29T04:11:48;9.07;;;1.60;;
35693;SDS011;21812;55.536;37.664;2022-12-29T04:14:14;5.50;;;1.60;;
35693;SDS011;21812;55.536;37.664;2022-12-29T04:16:40;6.57;;;2.23;;
35693;SDS011;21812;55.536;37.664;2022-12-29T04:19:06;6.40;;;2.00;;
35693;SDS011;21812;55.536;37.664;2022-12-29T04:21:34;5.73;;;2.40;;
35693;SDS011;21812;55.536;37.664;2022-12-29T04:24:00;9.40;;;3.23;;
35693;SDS011;21812;55.536;37.664;2022-12-29T04:26:25;4.00;;;2.67;;
35693;SDS011;21812;55.536;37.664;2022-12-29T04:29:07;5.70;;;2.20;;
35693;SDS011;21812;55.536;37.664;2022-12-29T04:31:44;3.43;;;2.10;;
35693;SDS011;21812;55.536;37.664;2022-12-29T04:34:11;7.87;;;2.50;;
35693;SDS011;21812;55.536;37.664;2022-12-29T04:36:37;4.17;;;2.17;;
35693;SDS011;21812;55.536;37.664;2022-12-29T04:39:04;2.93;;;1.83;;
35693;SDS011;21812;55.536;37.664;2022-12-29T04:41:31;5.93;;;1.97;;
35693;SDS011;21812;55.536;37.664;2022-12-29T04:43:57;7.43;;;3.03;;
35693;SDS011;21812;55.536;37.664;2022-12-29T04:46:37;5.00;;;2.80;;
35693;SDS011;21812;55.536;37.664;2022-12-29T04:49:09;4.13;;;2.90;;
35693;SDS011;21812;55.536;37.664;2022-12-29T04:51:53;4.75;;;2.47;;
35693;SDS011;21812;55.536;37.664;2022-12-29T04:54:22;4.13;;;2.50;;
35693;SDS011;21812;55.536;37.664;2022-12-29T04:57:03;8.17;;;2.97;;
35693;SDS011;21812;55.536;37.664;2022-12-29T04:59:29;8.13;;;3.40;;
35693;SDS011;21812;55.536;37.664;2022-12-29T05:01:57;9.47;;;3.90;;
35693;SDS011;21812;55.536;37.664;2022-12-29T05:04:23;6.57;;;2.90;;
35693;SDS011;21812;55.536;37.664;2022-12-29T05:06:49;9.13;;;3.33;;
35693;SDS011;21812;55.536;37.664;2022-12-29T05:09:16;9.20;;;3.07;;
35693;SDS011;21812;55.536;37.664;2022-12-29T05:11:41;8.90;;;3.90;;
35693;SDS011;21812;55.536;37.664;2022-12-29T05:14:08;6.27;;;2.90;;
35693;SDS011;21812;55.536;37.664;2022-12-29T05:16:35;7.13;;;3.53;;
35693;SDS011;21812;55.536;37.664;2022-12-29T05:19:00;9.97;;;5.53;;
35693;SDS011;21812;55.536;37.664;2022-12-29T05:21:26;8.07;;;3.00;;
35693;SDS011;21812;55.536;37.664;2022-12-29T05:23:52;5.13;;;2.87;;
35693;SDS011;21812;55.536;37.664;2022-12-29T05:26:18;8.03;;;2.80;;
35693;SDS011;21812;55.536;37.664;2022-12-29T05:29:09;6.53;;;2.63;;
35693;SDS011;21812;55.536;37.664;2022-12-29T05:31:35;7.57;;;3.27;;
35693;SDS011;21812;55.536;37.664;2022-12-29T05:34:02;6.90;;;3.50;;
35693;SDS011;21812;55.536;37.664;2022-12-29T05:36:28;7.93;;;3.00;;
35693;SDS011;21812;55.536;37.664;2022-12-29T05:38:57;4.43;;;2.57;;
35693;SDS011;21812;55.536;37.664;2022-12-29T05:41:23;5.57;;;2.93;;
35693;SDS011;21812;55.536;37.664;2022-12-29T05:43:58;9.77;;;3.40;;
35693;SDS011;21812;55.536;37.664;2022-12-29T05:46:41;5.85;;;3.03;;
35693;SDS011;21812;55.536;37.664;2022-12-29T05:49:30;5.43;;;3.17;;
35693;SDS011;21812;55.536;37.664;2022-12-29T05:52:08;5.33;;;3.43;;
35693;SDS011;21812;55.536;37.664;2022-12-29T05:54:34;5.17;;;3.00;;
35693;SDS011;21812;55.536;37.664;2022-12-29T05:57:02;4.90;;;3.60;;
35693;SDS011;21812;55.536;37.664;2022-12-29T05:59:29;9.03;;;3.43;;
35693;SDS011;21812;55.536;37.664;2022-12-29T06:01:54;6.03;;;3.63;;
35693;SDS011;21812;55.536;37.664;2022-12-29T06:04:20;4.37;;;2.73;;
35693;SDS011;21812;55.536;37.664;2022-12-29T06:06:46;5.87;;;2.87;;
35693;SDS011;21812;55.536;37.664;2022-12-29T06:09:21;4.17;;;3.07;;
35693;SDS011;21812;55.536;37.664;2022-12-29T06:11:46;3.73;;;2.43;;
35693;SDS011;21812;55.536;37.664;2022-12-29T06:14:12;4.43;;;3.03;;
35693;SDS011;21812;55.536;37.664;2022-12-29T06:16:37;9.93;;;3.27;;
35693;SDS011;21812;55.536;37.664;2022-12-29T06:19:08;11.63;;;3.10;;
35693;SDS011;21812;55.536;37.664;2022-12-29T06:21:34;7.50;;;4.93;;
35693;SDS011;21812;55.536;37.664;2022-12-29T06:24:00;5.87;;;2.80;;
35693;SDS011;21812;55.536;37.664;2022-12-29T06:26:26;4.33;;;2.77;;
35693;SDS011;21812;55.536;37.664;2022-12-29T06:28:52;6.77;;;3.47;;
35693;SDS011;21812;55.536;37.664;2022-12-29T06:31:17;6.47;;;2.80;;
35693;SDS011;21812;55.536;37.664;2022-12-29T06:33:44;7.90;;;3.63;;
35693;SDS011;21812;55.536;37.664;2022-12-29T06:36:09;4.97;;;3.00;;
35693;SDS011;21812;55.536;37.664;2022-12-29T06:38:35;7.47;;;2.90;;
35693;SDS011;21812;55.536;37.664;2022-12-29T06:41:01;8.50;;;2.87;;
35693;SDS011;21812;55.536;37.664;2022-12-29T06:43:56;9.00;;;3.30;;
35693;SDS011;21812;55.536;37.664;2022-12-29T06:46:54;4.97;;;3.60;;
35693;SDS011;21812;55.536;37.664;2022-12-29T06:49:20;9.03;;;3.93;;
35693;SDS011;21812;55.536;37.664;2022-12-29T06:51:46;10.87;;;3.77;;
35693;SDS011;21812;55.536;37.664;2022-12-29T06:54:11;9.53;;;3.70;;
35693;SDS011;21812;55.536;37.664;2022-12-29T06:56:37;10.97;;;3.90;;
35693;SDS011;21812;55.536;37.664;2022-12-29T06:59:03;6.77;;;3.57;;
35693;SDS011;21812;55.536;37.664;2022-12-29T07:01:29;7.83;;;3.73;;
35693;SDS011;21812;55.536;37.664;2022-12-29T07:03:55;7.07;;;3.77;;
35693;SDS011;21812;55.536;37.664;2022-12-29T07:06:21;3.97;;;3.00;;
35693;SDS011;21812;55.536;37.664;2022-12-29T07:08:46;7.70;;;3.30;;
35693;SDS011;21812;55.536;37.664;2022-12-29T07:11:12;4.40;;;3.30;;
35693;SDS011;21812;55.536;37.664;2022-12-29T07:13:38;6.83;;;3.90;;
35693;SDS011;21812;55.536;37.664;2022-12-29T07:16:07;7.80;;;4.50;;
35693;SDS011;21812;55.536;37.664;2022-12-29T07:18:34;11.60;;;5.47;;
35693;SDS011;21812;55.536;37.664;2022-12-29T07:21:00;6.10;;;3.20;;
35693;SDS011;21812;55.536;37.664;2022-12-29T07:23:26;5.10;;;3.13;;
35693;SDS011;21812;55.536;37.664;2022-12-29T07:26:01;10.40;;;3.53;;
35693;SDS011;21812;55.536;37.664;2022-12-29T07:28:31;8.47;;;3.40;;
35693;SDS011;21812;55.536;37.664;2022-12-29T07:31:00;5.90;;;3.10;;
35693;SDS011;21812;55.536;37.664;2022-12-29T07:33:27;7.03;;;2.40;;
35693;SDS011;21812;55.536;37.664;2022-12-29T07:35:54;5.00;;;2.70;;
35693;SDS011;21812;55.536;37.664;2022-12-29T07:38:20;5.40;;;2.60;;
35693;SDS011;21812;55.536;37.664;2022-12-29T07:40:45;6.70;;;2.40;;
35693;SDS011;21812;55.536;37.664;2022-12-29T07:43:11;5.90;;;3.10;;
35693;SDS011;21812;55.536;37.664;2022-12-29T07:45:44;5.22;;;2.17;;
35693;SDS011;21812;55.536;37.664;2022-12-29T07:48:10;7.47;;;2.97;;
35693;SDS011;21812;55.536;37.664;2022-12-29T07:50:35;5.73;;;2.67;;
35693;SDS011;21812;55.536;37.664;2022-12-29T07:53:02;6.90;;;2.70;;
35693;SDS011;21812;55.536;37.664;2022-12-29T07:55:28;6.07;;;2.30;;
35693;SDS011;21812;55.536;37.664;2022-12-29T07:57:54;4.40;;;2.37;;
35693;SDS011;21812;55.536;37.664;2022-12-29T08:00:20;7.03;;;3.40;;
35693;SDS011;21812;55.536;37.664;2022-12-29T08:02:46;5.00;;;1.97;;
35693;SDS011;21812;55.536;37.664;2022-12-29T08:05:12;4.60;;;2.13;;
35693;SDS011;21812;55.536;37.664;2022-12-29T08:07:37;6.47;;;3.40;;
35693;SDS011;21812;55.536;37.664;2022-12-29T08:10:03;8.97;;;2.23;;
35693;SDS011;21812;55.536;37.664;2022-12-29T08:12:30;6.63;;;2.57;;
35693;SDS011;21812;55.536;37.664;2022-12-29T08:14:55;5.40;;;2.90;;
35693;SDS011;21812;55.536;37.664;2022-12-29T08:17:21;4.80;;;1.90;;
35693;SDS011;21812;55.536;37.664;2022-12-29T08:19:46;8.37;;;2.80;;
35693;SDS011;21812;55.536;37.664;2022-12-29T08:22:15;3.70;;;2.37;;
35693;SDS011;21812;55.536;37.664;2022-12-29T08:24:40;6.10;;;2.13;;
35693;SDS011;21812;55.536;37.664;2022-12-29T08:27:06;7.83;;;3.00;;
35693;SDS011;21812;55.536;37.664;2022-12-29T08:29:32;4.63;;;2.20;;
35693;SDS011;21812;55.536;37.664;2022-12-29T08:31:57;5.47;;;2.17;;
35693;SDS011;21812;55.536;37.664;2022-12-29T08:34:23;5.53;;;2.30;;
35693;SDS011;21812;55.536;37.664;2022-12-29T08:36:49;2.63;;;1.83;;
35693;SDS011;21812;55.536;37.664;2022-12-29T08:39:14;3.57;;;1.97;;
35693;SDS011;21812;55.536;37.664;2022-12-29T08:41:40;4.73;;;1.90;;
35693;SDS011;21812;55.536;37.664;2022-12-29T08:44:06;3.47;;;1.63;;
35693;SDS011;21812;55.536;37.664;2022-12-29T08:46:31;5.63;;;2.13;;
35693;SDS011;21812;55.536;37.664;2022-12-29T08:48:57;3.70;;;1.50;;
35693;SDS011;21812;55.536;37.664;2022-12-29T08:51:23;3.70;;;2.10;;
35693;SDS011;21812;55.536;37.664;2022-12-29T08:53:48;7.50;;;2.87;;
35693;SDS011;21812;55.536;37.664;2022-12-29T08:56:14;4.10;;;1.73;;
35693;SDS011;21812;55.536;37.664;2022-12-29T08:58:47;4.63;;;2.08;;
35693;SDS011;21812;55.536;37.664;2022-12-29T09:01:13;3.93;;;2.10;;
35693;SDS011;21812;55.536;37.664;2022-12-29T09:03:38;8.43;;;2.20;;
35693;SDS011;21812;55.536;37.664;2022-12-29T09:06:04;7.03;;;2.23;;
35693;SDS011;21812;55.536;37.664;2022-12-29T09:08:30;3.63;;;1.67;;
35693;SDS011;21812;55.536;37.664;2022-12-29T09:10:55;7.23;;;2.23;;
35693;SDS011;21812;55.536;37.664;2022-12-29T09:13:31;5.87;;;1.80;;
35693;SDS011;21812;55.536;37.664;2022-12-29T09:15:59;6.93;;;3.57;;
35693;SDS011;21812;55.536;37.664;2022-12-29T09:18:25;3.80;;;1.57;;
35693;SDS011;21812;55.536;37.664;2022-12-29T09:21:01;3.57;;;1.80;;
35693;SDS011;21812;55.536;37.664;2022-12-29T09:23:29;6.50;;;1.57;;
35693;SDS011;21812;55.536;37.664;2022-12-29T09:25:56;6.43;;;2.67;;
35693;SDS011;21812;55.536;37.664;2022-12-29T09:28:21;9.50;;;2.53;;
35693;SDS011;21812;55.536;37.664;2022-12-29T09:30:48;3.00;;;1.30;;
35693;SDS011;21812;55.536;37.664;2022-12-29T09:33:14;2.37;;;1.47;;
35693;SDS011;21812;55.536;37.664;2022-12-29T09:35:41;4.67;;;1.40;;
35693;SDS011;21812;55.536;37.664;2022-12-29T09:38:08;5.70;;;2.00;;
35693;SDS011;21812;55.536;37.664;2022-12-29T09:40:34;4.90;;;1.77;;
35693;SDS011;21812;55.536;37.664;2022-12-29T09:48:14;2.85;;;1.75;;
35693;SDS011;21812;55.536;37.664;2022-12-29T09:50:52;3.57;;;1.00;;
35693;SDS011;21812;55.536;37.664;2022-12-29T09:53:25;2.90;;;1.60;;
35693;SDS011;21812;55.536;37.664;2022-12-29T09:55:58;2.93;;;1.63;;
35693;SDS011;21812;55.536;37.664;2022-12-29T09:58:28;2.93;;;1.50;;
35693;SDS011;21812;55.536;37.664;2022-12-29T10:06:18;3.35;;;1.17;;
35693;SDS011;21812;55.536;37.664;2022-12-29T10:17:44;3.50;;;1.33;;
35693;SDS011;21812;55.536;37.664;2022-12-29T10:25:38;3.73;;;2.03;;
35693;SDS011;21812;55.536;37.664;2022-12-29T10:30:59;2.93;;;2.00;;
35693;SDS011;21812;55.536;37.664;2022-12-29T10:33:31;3.87;;;1.90;;
35693;SDS011;21812;55.536;37.664;2022-12-29T10:36:04;3.03;;;2.10;;
35693;SDS011;21812;55.536;37.664;2022-12-29T10:38:40;3.17;;;2.40;;
35693;SDS011;21812;55.536;37.664;2022-12-29T10:44:03;2.47;;;2.20;;
35693;SDS011;21812;55.536;37.664;2022-12-29T10:46:34;3.37;;;2.27;;
35693;SDS011;21812;55.536;37.664;2022-12-29T10:49:02;5.13;;;2.53;;
35693;SDS011;21812;55.536;37.664;2022-12-29T10:51:33;7.50;;;2.97;;
35693;SDS011;21812;55.536;37.664;2022-12-29T10:56:44;4.67;;;2.27;;
35693;SDS011;21812;55.536;37.664;2022-12-29T10:59:20;4.07;;;2.57;;
35693;SDS011;21812;55.536;37.664;2022-12-29T11:04:57;6.63;;;3.47;;
35693;SDS011;21812;55.536;37.664;2022-12-29T11:10:15;4.60;;;2.63;;
35693;SDS011;21812;55.536;37.664;2022-12-29T11:12:54;4.57;;;2.60;;
35693;SDS011;21812;55.536;37.664;2022-12-29T11:15:21;8.75;;;3.63;;
35693;SDS011;21812;55.536;37.664;2022-12-29T11:17:48;3.42;;;2.70;;
35693;SDS011;21812;55.536;37.664;2022-12-29T11:20:35;5.13;;;2.53;;
35693;SDS011;21812;55.536;37.664;2022-12-29T11:23:03;4.47;;;3.45;;
35693;SDS011;21812;55.536;37.664;2022-12-29T11:25:46;4.57;;;3.20;;
35693;SDS011;21812;55.536;37.664;2022-12-29T11:28:15;6.63;;;3.07;;
35693;SDS011;21812;55.536;37.664;2022-12-29T11:30:42;6.28;;;3.00;;
35693;SDS011;21812;55.536;37.664;2022-12-29T11:33:08;3.57;;;2.53;;
35693;SDS011;21812;55.536;37.664;2022-12-29T11:35:35;8.45;;;2.63;;
35693;SDS011;21812;55.536;37.664;2022-12-29T11:38:06;6.93;;;3.50;;
35693;SDS011;21812;55.536;37.664;2022-12-29T11:40:51;7.28;;;3.45;;
35693;SDS011;21812;55.536;37.664;2022-12-29T11:43:21;5.53;;;3.23;;
35693;SDS011;21812;55.536;37.664;2022-12-29T11:46:02;4.85;;;3.05;;
35693;SDS011;21812;55.536;37.664;2022-12-29T11:48:39;3.90;;;3.43;;
35693;SDS011;21812;55.536;37.664;2022-12-29T11:51:06;5.00;;;3.20;;
35693;SDS011;21812;55.536;37.664;2022-12-29T11:53:42;4.85;;;3.35;;
35693;SDS011;21812;55.536;37.664;2022-12-29T11:56:16;7.40;;;4.13;;
35693;SDS011;21812;55.536;37.664;2022-12-29T11:58:43;7.70;;;3.33;;
35693;SDS011;21812;55.536;37.664;2022-12-29T12:03:50;5.45;;;3.72;;
35693;SDS011;21812;55.536;37.664;2022-12-29T12:07:05;6.43;;;3.93;;
35693;SDS011;21812;55.536;37.664;2022-12-29T12:09:45;7.30;;;5.00;;
35693;SDS011;21812;55.536;37.664;2022-12-29T12:12:19;7.47;;;4.25;;
35693;SDS011;21812;55.536;37.664;2022-12-29T12:14:52;8.25;;;4.47;;
35693;SDS011;21812;55.536;37.664;2022-12-29T12:18:24;7.78;;;3.85;;
35693;SDS011;21812;55.536;37.664;2022-12-29T12:20:53;6.77;;;4.50;;
35693;SDS011;21812;55.536;37.664;2022-12-29T12:23:43;9.10;;;3.63;;
35693;SDS011;21812;55.536;37.664;2022-12-29T12:28:48;5.55;;;3.40;;
35693;SDS011;21812;55.536;37.664;2022-12-29T12:34:00;8.88;;;4.63;;
35693;SDS011;21812;55.536;37.664;2022-12-29T12:36:36;9.43;;;3.58;;
35693;SDS011;21812;55.536;37.664;2022-12-29T12:39:26;6.78;;;3.85;;
35693;SDS011;21812;55.536;37.664;2022-12-29T12:56:13;8.93;;;5.88;;
35693;SDS011;21812;55.536;37.664;2022-12-29T13:04:04;9.90;;;5.75;;
35693;SDS011;21812;55.536;37.664;2022-12-29T13:13:24;12.95;;;6.60;;
35693;SDS011;21812;55.536;37.664;2022-12-29T13:23:54;12.13;;;5.03;;
35693;SDS011;21812;55.536;37.664;2022-12-29T13:29:01;11.98;;;5.75;;
35693;SDS011;21812;55.536;37.664;2022-12-29T13:34:36;15.23;;;6.13;;
35693;SDS011;21812;55.536;37.664;2022-12-29T13:37:25;10.95;;;6.78;;
35693;SDS011;21812;55.536;37.664;2022-12-29T13:40:00;11.73;;;6.90;;
35693;SDS011;21812;55.536;37.664;2022-12-29T13:42:29;13.07;;;6.53;;
35693;SDS011;21812;55.536;37.664;2022-12-29T13:47:43;22.83;;;8.05;;
35693;SDS011;21812;55.536;37.664;2022-12-29T13:50:25;18.90;;;8.43;;
35693;SDS011;21812;55.536;37.664;2022-12-29T13:58:17;16.70;;;9.43;;
35693;SDS011;21812;55.536;37.664;2022-12-29T14:01:12;17.58;;;9.88;;
35693;SDS011;21812;55.536;37.664;2022-12-29T14:03:50;19.03;;;10.13;;
35693;SDS011;21812;55.536;37.664;2022-12-29T14:08:58;20.40;;;9.40;;
35693;SDS011;21812;55.536;37.664;2022-12-29T14:11:35;18.10;;;10.60;;
35693;SDS011;21812;55.536;37.664;2022-12-29T14:16:48;16.10;;;9.57;;
35693;SDS011;21812;55.536;37.664;2022-12-29T14:19:16;21.53;;;9.87;;
35693;SDS011;21812;55.536;37.664;2022-12-29T14:21:51;21.47;;;8.90;;
35693;SDS011;21812;55.536;37.664;2022-12-29T14:26:58;17.15;;;9.07;;
35693;SDS011;21812;55.536;37.664;2022-12-29T14:31:51;30.60;;;10.70;;
35693;SDS011;21812;55.536;37.664;2022-12-29T14:36:53;16.90;;;8.60;;
35693;SDS011;21812;55.536;37.664;2022-12-29T14:39:29;18.13;;;7.93;;
35693;SDS011;21812;55.536;37.664;2022-12-29T14:45:23;17.37;;;7.97;;
35693;SDS011;21812;55.536;37.664;2022-12-29T14:47:50;17.77;;;9.33;;
35693;SDS011;21812;55.536;37.664;2022-12-29T14:57:48;18.85;;;8.35;;
35693;SDS011;21812;55.536;37.664;2022-12-29T15:00:24;18.27;;;9.38;;
35693;SDS011;21812;55.536;37.664;2022-12-29T15:03:17;17.83;;;10.07;;
35693;SDS011;21812;55.536;37.664;2022-12-29T15:05:49;18.57;;;8.70;;
35693;SDS011;21812;55.536;37.664;2022-12-29T15:08:29;23.92;;;11.10;;
35693;SDS011;21812;55.536;37.664;2022-12-29T15:11:00;18.10;;;8.50;;
35693;SDS011;21812;55.536;37.664;2022-12-29T15:13:36;22.58;;;9.95;;
35693;SDS011;21812;55.536;37.664;2022-12-29T15:16:04;19.33;;;8.80;;
35693;SDS011;21812;55.536;37.664;2022-12-29T15:18:45;19.27;;;9.03;;
35693;SDS011;21812;55.536;37.664;2022-12-29T15:21:11;18.88;;;8.63;;
35693;SDS011;21812;55.536;37.664;2022-12-29T15:23:39;20.58;;;9.35;;
35693;SDS011;21812;55.536;37.664;2022-12-29T15:26:09;16.15;;;8.43;;
35693;SDS011;21812;55.536;37.664;2022-12-29T15:28:43;26.83;;;10.25;;
35693;SDS011;21812;55.536;37.664;2022-12-29T15:33:42;16.67;;;7.93;;
35693;SDS011;21812;55.536;37.664;2022-12-29T15:36:13;13.25;;;6.93;;
35693;SDS011;21812;55.536;37.664;2022-12-29T15:38:45;13.77;;;7.22;;
35693;SDS011;21812;55.536;37.664;2022-12-29T15:43:53;18.40;;;9.10;;
35693;SDS011;21812;55.536;37.664;2022-12-29T15:47:05;14.43;;;7.90;;
35693;SDS011;21812;55.536;37.664;2022-12-29T15:49:39;16.73;;;8.13;;
35693;SDS011;21812;55.536;37.664;2022-12-29T15:52:08;12.83;;;7.93;;
35693;SDS011;21812;55.536;37.664;2022-12-29T15:54:34;17.95;;;9.77;;
35693;SDS011;21812;55.536;37.664;2022-12-29T15:57:02;21.42;;;8.70;;
35693;SDS011;21812;55.536;37.664;2022-12-29T15:59:29;15.07;;;8.23;;
35693;SDS011;21812;55.536;37.664;2022-12-29T16:01:59;17.45;;;7.75;;
35693;SDS011;21812;55.536;37.664;2022-12-29T16:04:29;21.67;;;10.38;;
35693;SDS011;21812;55.536;37.664;2022-12-29T16:09:32;16.83;;;9.03;;
35693;SDS011;21812;55.536;37.664;2022-12-29T16:12:13;23.15;;;10.07;;
35693;SDS011;21812;55.536;37.664;2022-12-29T16:14:44;14.13;;;8.48;;
35693;SDS011;21812;55.536;37.664;2022-12-29T16:17:13;14.93;;;9.57;;
35693;SDS011;21812;55.536;37.664;2022-12-29T16:19:54;22.27;;;10.60;;
35693;SDS011;21812;55.536;37.664;2022-12-29T16:22:26;28.48;;;13.30;;
35693;SDS011;21812;55.536;37.664;2022-12-29T16:24:55;22.03;;;11.53;;
35693;SDS011;21812;55.536;37.664;2022-12-29T16:27:25;21.03;;;9.97;;
35693;SDS011;21812;55.536;37.664;2022-12-29T16:29:58;17.37;;;10.03;;
35693;SDS011;21812;55.536;37.664;2022-12-29T16:32:31;18.83;;;10.68;;
35693;SDS011;21812;55.536;37.664;2022-12-29T16:37:42;18.03;;;9.30;;
35693;SDS011;21812;55.536;37.664;2022-12-29T16:40:28;20.10;;;9.03;;
35693;SDS011;21812;55.536;37.664;2022-12-29T16:42:56;17.83;;;8.20;;
35693;SDS011;21812;55.536;37.664;2022-12-29T16:48:17;24.67;;;12.37;;
35693;SDS011;21812;55.536;37.664;2022-12-29T16:50:49;16.17;;;8.63;;
35693;SDS011;21812;55.536;37.664;2022-12-29T16:53:25;17.13;;;7.57;;
35693;SDS011;21812;55.536;37.664;2022-12-29T16:55:53;18.27;;;9.37;;
35693;SDS011;21812;55.536;37.664;2022-12-29T16:58:24;19.60;;;8.53;;
35693;SDS011;21812;55.536;37.664;2022-12-29T17:00:56;24.10;;;11.15;;
35693;SDS011;21812;55.536;37.664;2022-12-29T17:03:33;17.00;;;8.68;;
35693;SDS011;21812;55.536;37.664;2022-12-29T17:06:04;23.10;;;9.13;;
35693;SDS011;21812;55.536;37.664;2022-12-29T17:08:39;22.35;;;11.43;;
35693;SDS011;21812;55.536;37.664;2022-12-29T17:11:07;18.40;;;10.68;;
35693;SDS011;21812;55.536;37.664;2022-12-29T17:14:40;26.63;;;9.90;;
35693;SDS011;21812;55.536;37.664;2022-12-29T17:19:46;23.85;;;10.85;;
35693;SDS011;21812;55.536;37.664;2022-12-29T17:22:24;23.40;;;10.90;;
35693;SDS011;21812;55.536;37.664;2022-12-29T17:24:51;25.92;;;12.93;;
35693;SDS011;21812;55.536;37.664;2022-12-29T17:29:54;30.15;;;14.52;;
35693;SDS011;21812;55.536;37.664;2022-12-29T17:32:23;21.27;;;11.60;;
35693;SDS011;21812;55.536;37.664;2022-12-29T17:34:48;22.33;;;11.20;;
35693;SDS011;21812;55.536;37.664;2022-12-29T17:39:49;21.27;;;11.00;;
35693;SDS011;21812;55.536;37.664;2022-12-29T17:42:16;21.50;;;9.48;;
35693;SDS011;21812;55.536;37.664;2022-12-29T17:44:43;19.83;;;10.30;;
35693;SDS011;21812;55.536;37.664;2022-12-29T17:47:09;15.52;;;8.80;;
35693;SDS011;21812;55.536;37.664;2022-12-29T17:52:13;17.55;;;9.57;;
35693;SDS011;21812;55.536;37.664;2022-12-29T17:54:42;18.70;;;9.85;;
35693;SDS011;21812;55.536;37.664;2022-12-29T17:57:15;24.65;;;12.32;;
35693;SDS011;21812;55.536;37.664;2022-12-29T17:59:42;25.73;;;12.88;;
35693;SDS011;21812;55.536;37.664;2022-12-29T18:02:25;24.50;;;12.93;;